Time;durP1;ratioP1;P1;durP2;ratioP2;P2;SDS_P1;SDS_P2;PMS_P1;PMS_P2;Temp;Humidity;BMP_temperature;BMP_pressure;BME280_temperature;BME280_humidity;BME280_pressure;Samples;Min_cycle;Max_cycle;Signal;HPM_P1;HPM_P2
2022/05/25 00:02:05;;;;;;;8.52;7.47;;;;;;;9.11;100.00;101203.75;5092005;28;20392;-73
2022/05/25 00:04:30;;;;;;;9.00;7.10;;;;;;;9.10;100.00;101215.06;5091054;28;20080;-73
2022/05/25 00:06:55;;;;;;;9.52;7.05;;;;;;;9.06;100.00;101213.38;5091873;28;20032;-73
2022/05/25 00:09:21;;;;;;;9.98;7.22;;;;;;;9.05;100.00;101216.84;5097611;28;20031;-73
2022/05/25 00:11:46;;;;;;;10.73;7.78;;;;;;;9.03;100.00;101223.81;5111441;28;20030;-73
2022/05/25 00:14:12;;;;;;;13.93;9.02;;;;;;;9.04;100.00;101211.66;5112037;28;20097;-73
2022/05/25 00:16:37;;;;;;;9.68;8.10;;;;;;;9.03;100.00;101222.97;5111815;28;20364;-73
2022/05/25 00:21:47;;;;;;;13.38;8.27;;;;;;;8.94;100.00;101228.25;5116467;28;20049;-73
2022/05/25 00:24:16;;;;;;;12.13;8.57;;;;;;;8.90;100.00;101222.22;5096152;28;20527;-73
2022/05/25 00:26:41;;;;;;;12.13;8.63;;;;;;;8.87;100.00;101225.72;5094976;28;20032;-73
2022/05/25 00:29:06;;;;;;;10.05;7.85;;;;;;;8.84;100.00;101219.69;5107459;28;20112;-73
2022/05/25 00:31:32;;;;;;;10.93;8.25;;;;;;;8.83;100.00;101224.03;5114633;28;20483;-73
2022/05/25 00:33:58;;;;;;;10.98;8.65;;;;;;;8.83;100.00;101228.38;5115333;28;20024;-73
2022/05/25 00:36:24;;;;;;;12.63;8.90;;;;;;;8.83;100.00;101228.38;5115656;28;20024;-73
2022/05/25 00:38:49;;;;;;;10.95;8.88;;;;;;;8.77;100.00;101225.84;5115895;28;20026;-73
2022/05/25 00:41:15;;;;;;;12.45;9.25;;;;;;;8.76;100.00;101222.34;5115271;28;20106;-73
2022/05/25 00:43:42;;;;;;;14.63;9.38;;;;;;;8.74;100.00;101231.06;5115779;28;20110;-73
2022/05/25 00:46:12;;;;;;;13.80;10.10;;;;;;;8.72;100.00;101227.59;5114262;28;20020;-73
2022/05/25 00:48:43;;;;;;;11.23;9.32;;;;;;;8.65;100.00;101235.44;5115525;28;20441;-73
2022/05/25 00:51:12;;;;;;;12.63;9.63;;;;;;;8.63;100.00;101229.44;5104993;28;20479;-73
2022/05/25 00:53:38;;;;;;;13.95;9.50;;;;;;;8.61;100.00;101236.38;5094141;28;20123;-73
2022/05/25 00:56:07;;;;;;;13.05;9.98;;;;;;;8.61;100.00;101246.75;5095336;28;20059;-73
2022/05/25 00:58:35;;;;;;;12.65;10.13;;;;;;;8.61;100.00;101240.69;5094753;28;20100;-73
2022/05/25 01:01:01;;;;;;;14.13;10.95;;;;;;;8.58;100.00;101243.31;5097971;28;20019;-73
2022/05/25 01:03:26;;;;;;;15.43;11.48;;;;;;;8.54;100.00;101245.09;5103386;28;20032;-73
2022/05/25 01:06:12;;;;;;;15.18;11.27;;;;;;;8.52;100.00;101245.97;5094828;28;20083;-73
2022/05/25 01:09:17;;;;;;;14.02;10.98;;;;;;;8.53;100.00;101245.09;5094163;28;20093;-73
2022/05/25 01:12:11;;;;;;;15.60;10.43;;;;;;;8.52;100.00;101251.16;5106954;28;20036;-73
2022/05/25 01:15:00;;;;;;;12.90;10.38;;;;;;;8.54;100.00;101249.44;5114564;28;20024;-73
2022/05/25 01:18:03;;;;;;;15.07;10.70;;;;;;;8.50;100.00;101248.59;5114981;28;20100;-73
2022/05/25 01:20:46;;;;;;;12.20;10.50;;;;;;;8.47;100.00;101253.81;5115142;27;20054;-73
2022/05/25 01:23:19;;;;;;;12.48;10.73;;;;;;;8.44;100.00;101248.66;5114366;28;20039;-73
2022/05/25 01:26:03;;;;;;;15.38;11.23;;;;;;;8.46;100.00;101249.47;5113746;28;20475;-73
2022/05/25 01:28:34;;;;;;;;;;;;;;;8.46;100.00;101246.03;5114396;28;20027;-73
2022/05/25 01:31:05;;;;;;;15.55;10.82;;;;;;;8.43;100.00;101257.28;5114601;28;19934;-73
2022/05/25 01:33:42;;;;;;;13.73;11.32;;;;;;;8.38;100.00;101253.88;5110416;28;20026;-73
2022/05/25 01:36:15;;;;;;;15.77;11.82;;;;;;;8.39;100.00;101255.59;5114272;27;20057;-73
2022/05/25 01:39:09;;;;;;;16.35;12.18;;;;;;;8.36;100.00;101256.44;5114524;28;20028;-73
2022/05/25 01:41:52;;;;;;;13.80;11.25;;;;;;;8.31;100.00;101262.56;5096909;28;20467;-73
2022/05/25 01:44:23;;;;;;;13.40;11.27;;;;;;;8.28;100.00;101258.25;5094672;28;20024;-73
2022/05/25 01:46:54;;;;;;;19.88;11.85;;;;;;;8.25;100.00;101266.06;5094237;28;20043;-73
2022/05/25 01:49:27;;;;;;;17.88;11.55;;;;;;;8.28;100.00;101267.78;5093227;28;20467;-73
2022/05/25 01:52:01;;;;;;;14.82;12.02;;;;;;;8.24;100.00;101266.97;5110480;28;20475;-73
2022/05/25 01:54:32;;;;;;;15.35;12.68;;;;;;;8.21;100.00;101261.78;5114197;28;20048;-73
2022/05/25 01:57:01;;;;;;;16.90;11.48;;;;;;;8.20;100.00;101266.09;5113915;28;20080;-73
2022/05/25 01:59:26;;;;;;;18.70;12.63;;;;;;;8.17;100.00;101263.53;5114007;28;20032;-73
2022/05/25 02:04:45;;;;;;;14.25;11.50;;;;;;;8.19;100.00;101274.75;5113769;28;20069;-73
2022/05/25 02:07:35;;;;;;;16.58;12.15;;;;;;;8.17;100.00;101267.84;5114253;27;20020;-73
2022/05/25 02:10:23;;;;;;;17.25;12.13;;;;;;;8.16;100.00;101261.78;5093907;28;20544;-73
2022/05/25 02:13:06;;;;;;;16.17;12.00;;;;;;;8.11;100.00;101271.38;5093635;28;20468;-73
2022/05/25 02:15:35;;;;;;;20.60;13.57;;;;;;;8.09;100.00;101270.50;5093415;28;20031;-73
2022/05/25 02:18:21;;;;;;;16.55;12.52;;;;;;;8.05;100.00;101274.00;5093012;28;20293;-73
2022/05/25 02:20:56;;;;;;;16.75;12.70;;;;;;;8.05;100.00;101271.41;5093445;28;20032;-73
2022/05/25 02:23:38;;;;;;;17.08;12.48;;;;;;;8.01;100.00;101268.81;5101948;28;20043;-73
2022/05/25 02:26:11;;;;;;;14.35;11.73;;;;;;;8.01;100.00;101274.00;5112585;28;20035;-73
2022/05/25 02:28:42;;;;;;;16.27;12.70;;;;;;;7.97;100.00;101274.03;5113626;28;20035;-73
2022/05/25 02:31:12;;;;;;;16.55;12.73;;;;;;;7.98;100.00;101277.50;5101306;28;20043;-73
2022/05/25 02:33:42;;;;;;;16.52;12.52;;;;;;;7.96;100.00;101276.66;5092447;28;20020;-73
2022/05/25 02:36:10;;;;;;;19.25;12.57;;;;;;;7.91;100.00;101273.19;5093517;28;20468;-73
2022/05/25 02:38:38;;;;;;;18.45;13.27;;;;;;;7.91;100.00;101288.78;5092378;28;20038;-73
2022/05/25 02:41:06;;;;;;;16.42;13.00;;;;;;;7.88;100.00;101286.19;5093240;28;20198;-73
2022/05/25 02:43:34;;;;;;;17.35;13.25;;;;;;;7.83;100.00;101291.41;5091605;28;20490;-73
2022/05/25 02:45:59;;;;;;;16.27;12.70;;;;;;;7.87;100.00;101294.84;5092100;28;20450;-73
2022/05/25 02:48:25;;;;;;;22.33;12.93;;;;;;;7.83;100.00;101294.00;5092818;28;20049;-73
2022/05/25 02:50:50;;;;;;;16.90;12.45;;;;;;;7.86;100.00;101295.75;5092911;28;20074;-73
2022/05/25 02:53:15;;;;;;;16.38;12.55;;;;;;;7.81;100.00;101298.34;5091771;28;20063;-73
2022/05/25 02:55:40;;;;;;;19.10;12.82;;;;;;;7.79;100.00;101296.66;5092589;28;20052;-73
2022/05/25 02:58:06;;;;;;;16.38;12.93;;;;;;;7.76;100.00;101301.84;5092343;28;20032;-73
2022/05/25 03:00:32;;;;;;;15.68;12.23;;;;;;;7.65;100.00;101289.78;5109612;28;20391;-73
2022/05/25 03:02:57;;;;;;;20.10;12.77;;;;;;;7.70;100.00;101295.81;5113397;28;20027;-73
2022/05/25 03:05:23;;;;;;;15.43;13.05;;;;;;;7.67;100.00;101298.41;5113097;28;20023;-73
2022/05/25 03:07:48;;;;;;;16.20;12.27;;;;;;;7.66;100.00;101304.47;5112089;28;20509;-73
2022/05/25 03:10:14;;;;;;;16.48;12.25;;;;;;;7.65;100.00;101300.16;5112839;28;20360;-73
2022/05/25 03:12:40;;;;;;;14.93;12.55;;;;;;;7.67;100.00;101298.41;5112944;28;20037;-73
2022/05/25 03:15:06;;;;;;;17.05;12.07;;;;;;;7.65;100.00;101310.53;5108765;28;20032;-73
2022/05/25 03:17:31;;;;;;;17.73;12.25;;;;;;;7.61;100.00;101308.81;5112527;28;20505;-73
2022/05/25 03:19:57;;;;;;;12.65;11.15;;;;;;;7.61;100.00;101311.41;5112871;28;20027;-73
2022/05/25 03:22:23;;;;;;;16.38;11.98;;;;;;;7.61;100.00;101315.72;5111890;27;20030;-73
2022/05/25 03:24:49;;;;;;;19.25;11.60;;;;;;;7.57;100.00;101308.84;5112612;28;20080;-73
2022/05/25 03:27:14;;;;;;;18.88;10.75;;;;;;;7.56;100.00;101310.56;5112715;28;20023;-73
2022/05/25 03:29:40;;;;;;;17.13;11.30;;;;;;;7.55;100.00;101313.16;5110853;28;20027;-73
2022/05/25 03:32:06;;;;;;;17.92;12.60;;;;;;;7.52;100.00;101314.06;5112874;28;20089;-73
2022/05/25 03:34:32;;;;;;;14.35;11.13;;;;;;;7.53;100.00;101314.91;5112109;28;20490;-73
2022/05/25 03:36:57;;;;;;;17.70;11.32;;;;;;;7.52;100.00;101314.06;5111887;28;20023;-73
2022/05/25 03:39:26;;;;;;;14.55;11.68;;;;;;;7.52;100.00;101327.03;5112302;28;20038;-73
2022/05/25 03:42:00;;;;;;;15.57;10.57;;;;;;;7.53;100.00;101328.75;5102723;28;20081;-73
2022/05/25 03:44:25;;;;;;;12.73;10.35;;;;;;;7.53;100.00;101328.75;5092132;28;20073;-73
2022/05/25 03:46:51;;;;;;;13.68;10.70;;;;;;;7.52;100.00;101332.22;5092114;28;20496;-73
2022/05/25 03:49:17;;;;;;;15.65;10.52;;;;;;;7.53;100.00;101333.94;5091424;28;20032;-73
2022/05/25 03:51:44;;;;;;;13.93;10.68;;;;;;;7.55;100.00;101341.69;5091806;28;20090;-73
2022/05/25 03:54:10;;;;;;;15.57;10.85;;;;;;;7.57;100.00;101340.84;5091440;28;20476;-73
2022/05/25 03:56:35;;;;;;;15.00;10.63;;;;;;;7.55;100.00;101345.16;5090887;28;20454;-73
2022/05/25 03:59:01;;;;;;;13.63;9.98;;;;;;;7.58;100.00;101346.88;5091981;28;20034;-73
2022/05/25 04:01:26;;;;;;;13.60;11.10;;;;;;;7.59;100.00;101343.44;5092079;28;20036;-73
2022/05/25 04:03:51;;;;;;;14.13;9.85;;;;;;;7.61;100.00;101339.94;5091014;28;20035;-73
2022/05/25 04:06:17;;;;;;;15.07;9.73;;;;;;;7.62;100.00;101346.88;5091759;28;20028;-73
2022/05/25 04:08:42;;;;;;;19.02;9.98;;;;;;;7.62;100.00;101348.59;5091609;28;20024;-73
2022/05/25 04:11:07;;;;;;;16.38;10.93;;;;;;;7.64;100.00;101352.06;5105751;28;20463;-73
2022/05/25 04:13:33;;;;;;;13.82;9.85;;;;;;;7.69;100.00;101350.31;5111945;28;20031;-73
2022/05/25 04:15:58;;;;;;;12.85;10.10;;;;;;;7.71;100.00;101357.22;5112288;28;20020;-73
2022/05/25 04:18:23;;;;;;;13.68;9.95;;;;;;;7.74;100.00;101351.16;5111089;28;20054;-73
2022/05/25 04:20:48;;;;;;;14.52;10.02;;;;;;;7.80;100.00;101348.53;5111937;28;20475;-73
2022/05/25 04:23:13;;;;;;;20.80;10.00;;;;;;;7.83;100.00;101358.91;5111901;28;20030;-73
2022/05/25 04:25:40;;;;;;;16.38;8.93;;;;;;;7.85;100.00;101361.50;5110576;28;20032;-73
2022/05/25 04:28:06;;;;;;;12.80;9.05;;;;;;;7.89;100.00;101358.88;5112365;28;20024;-73
2022/05/25 04:30:32;;;;;;;15.40;9.93;;;;;;;7.96;100.00;101360.59;5111551;28;20085;-73
2022/05/25 04:32:58;;;;;;;14.30;9.75;;;;;;;8.01;100.00;101357.97;5111466;28;20110;-73
2022/05/25 04:35:24;;;;;;;18.83;9.93;;;;;;;8.05;100.00;101359.69;5111829;28;20095;-73
2022/05/25 04:37:53;;;;;;;14.57;9.85;;;;;;;8.07;100.00;101360.53;5107727;28;20039;-73
2022/05/25 04:40:40;;;;;;;19.10;9.63;;;;;;;8.11;100.00;101359.66;5111369;28;20095;-73
2022/05/25 04:43:12;;;;;;;14.40;8.88;;;;;;;8.16;100.00;101365.69;5112234;28;20019;-73
2022/05/25 04:45:39;;;;;;;12.90;8.90;;;;;;;8.20;100.00;101362.19;5111076;28;20028;-73
2022/05/25 04:48:05;;;;;;;14.93;8.85;;;;;;;8.24;100.00;101365.66;5111891;28;20020;-73
2022/05/25 04:50:35;;;;;;;17.67;9.07;;;;;;;8.29;100.00;101363.03;5111981;28;20024;-73
2022/05/25 04:53:02;;;;;;;13.60;8.52;;;;;;;8.35;100.00;101369.03;5100718;28;20032;-73
2022/05/25 04:58:34;;;;;;;16.10;8.80;;;;;;;8.50;100.00;101369.84;5091173;28;20070;-73
2022/05/25 05:01:00;;;;;;;15.30;8.82;;;;;;;8.56;100.00;101368.06;5090644;28;20038;-73
2022/05/25 05:03:27;;;;;;;15.35;8.50;;;;;;;8.61;100.00;101379.31;5091301;28;20031;-73
2022/05/25 05:05:54;;;;;;;16.25;8.48;;;;;;;8.66;100.00;101379.25;5093112;28;20663;-73
2022/05/25 05:08:19;;;;;;;14.30;8.82;;;;;;;8.67;100.00;101370.63;5114441;28;20019;-73
2022/05/25 05:10:48;;;;;;;14.38;8.20;;;;;;;8.77;100.00;101377.47;5115166;28;20036;-73
2022/05/25 05:13:14;;;;;;;15.23;8.60;;;;;;;8.80;100.00;101376.59;5114337;28;20024;-73
2022/05/25 05:15:43;;;;;;;14.77;8.48;;;;;;;8.89;100.00;101390.38;5115190;28;20405;-73
2022/05/25 05:18:09;;;;;;;12.70;8.20;;;;;;;8.93;100.00;101375.63;5103298;28;20131;-73
2022/05/25 05:20:35;;;;;;;13.60;7.70;;;;;;;8.99;100.00;101374.69;5093831;28;20162;-73
2022/05/25 05:23:01;;;;;;;15.57;8.63;;;;;;;9.04;100.00;101365.97;5094880;28;20021;-73
2022/05/25 05:25:26;;;;;;;13.10;7.75;;;;;;;9.09;100.00;101369.41;5110712;28;20028;-73
2022/05/25 05:27:53;;;;;;;12.50;7.80;;;;;;;9.15;100.00;101363.25;5114170;28;20065;-73
2022/05/25 05:30:21;;;;;;;13.98;8.30;;;;;;;9.21;100.00;101364.94;5115078;28;20031;-73
2022/05/25 05:32:46;;;;;;;18.38;8.27;;;;;;;9.29;100.00;101369.22;5114853;28;20039;-73
2022/05/25 05:35:12;;;;;;;13.25;7.57;;;;;;;9.36;100.00;101362.22;5110263;28;20035;-73
2022/05/25 05:37:48;;;;;;;11.52;8.18;;;;;;;9.44;100.00;101357.78;5114570;28;20063;-73
2022/05/25 05:40:16;;;;;;;12.55;7.80;;;;;;;9.49;100.00;101353.41;5114573;28;20028;-73
2022/05/25 05:42:43;;;;;;;19.73;7.85;;;;;;;9.59;100.00;101355.00;5114005;28;20023;-73
2022/05/25 05:45:14;;;;;;;13.95;7.85;;;;;;;9.63;100.00;101357.59;5114968;27;20031;-73
2022/05/25 05:47:46;;;;;;;13.68;7.80;;;;;;;9.69;100.00;101360.13;5114681;28;20035;-73
2022/05/25 05:50:11;;;;;;;16.52;8.07;;;;;;;9.74;100.00;101361.78;5112379;28;20053;-73
2022/05/25 05:52:37;;;;;;;13.40;7.90;;;;;;;9.81;100.00;101354.78;5114236;28;20023;-74
2022/05/25 05:55:04;;;;;;;13.70;7.40;;;;;;;9.84;100.00;101354.72;5114519;28;20024;-73
2022/05/25 05:57:33;;;;;;;15.80;7.75;;;;;;;9.91;100.00;101361.59;5113715;28;20078;-73
2022/05/25 05:59:58;;;;;;;13.52;8.02;;;;;;;9.98;100.00;101358.03;5114714;27;20126;-73
2022/05/25 06:02:23;;;;;;;15.82;7.43;;;;;;;10.03;100.00;101365.78;5110040;28;20106;-73
2022/05/25 06:04:49;;;;;;;11.57;7.43;;;;;;;10.13;100.00;101363.91;5114056;28;20041;-72
2022/05/25 06:07:14;;;;;;;13.52;7.85;;;;;;;10.18;100.00;101360.38;5114036;28;20077;-73
2022/05/25 06:09:39;;;;;;;13.90;7.40;;;;;;;10.23;100.00;101374.19;5113438;28;20023;-73
2022/05/25 06:12:05;;;;;;;12.32;7.43;;;;;;;10.30;100.00;101373.28;5107607;28;20024;-73
2022/05/25 06:14:30;;;;;;;12.30;7.60;;;;;;;10.40;100.00;101375.72;5108417;28;20027;-73
2022/05/25 06:19:39;;;;;;;11.05;7.55;;;;;;;10.57;100.00;101383.31;5113913;28;20441;-74
2022/05/25 06:22:08;;;;;;;12.38;7.25;;;;;;;10.63;100.00;101393.66;5111470;28;20027;-74
2022/05/25 06:24:39;;;;;;;14.05;7.43;;;;;;;10.74;100.00;101391.75;5108585;28;20020;-73
2022/05/25 06:27:08;;;;;;;14.18;8.35;;;;;;;10.88;100.00;101394.13;5093845;28;20031;-74
2022/05/25 06:29:34;;;;;;;18.10;9.07;;;;;;;11.07;100.00;101394.69;5096495;28;20032;-73
2022/05/25 06:31:59;;;;;;;13.77;7.95;;;;;;;11.25;100.00;101395.25;5102142;28;20011;-74
2022/05/25 06:34:24;;;;;;;12.60;7.63;;;;;;;11.48;100.00;101400.06;5113553;28;20375;-74
2022/05/25 06:36:50;;;;;;;12.82;8.95;;;;;;;11.62;100.00;101401.56;5113344;28;20092;-73
2022/05/25 06:39:16;;;;;;;13.73;8.63;;;;;;;11.83;100.00;101400.28;5111840;28;20391;-74
2022/05/25 06:41:41;;;;;;;15.85;7.72;;;;;;;12.06;99.93;101405.91;5109771;28;20027;-73
2022/05/25 06:44:07;;;;;;;13.90;9.13;;;;;;;12.27;97.05;101403.78;5113797;28;20020;-73
2022/05/25 06:46:32;;;;;;;12.07;9.27;;;;;;;12.50;96.85;101406.75;5110488;28;20102;-73
2022/05/25 06:48:58;;;;;;;13.73;8.68;;;;;;;12.63;94.72;101413.41;5106664;28;20058;-73
2022/05/25 06:51:33;;;;;;;16.25;10.02;;;;;;;12.80;95.54;101405.16;5092963;28;20028;-73
2022/05/25 06:53:58;;;;;;;15.55;10.00;;;;;;;12.88;94.15;101408.47;5092028;28;20503;-73
2022/05/25 06:56:24;;;;;;;18.48;11.13;;;;;;;12.83;92.48;101409.47;5092833;28;20058;-73
2022/05/25 06:58:52;;;;;;;17.65;11.52;;;;;;;12.86;93.48;101415.50;5091967;28;20118;-73
2022/05/25 07:01:17;;;;;;;20.33;10.93;;;;;;;12.88;93.56;101418.94;5092701;28;20424;-73
2022/05/25 07:03:43;;;;;;;16.02;10.65;;;;;;;12.98;92.43;101423.94;5092496;28;20099;-73
2022/05/25 07:06:10;;;;;;;15.40;10.65;;;;;;;13.02;92.10;101425.59;5092352;28;20519;-73
2022/05/25 07:08:36;;;;;;;15.20;10.20;;;;;;;13.07;91.77;101426.31;5092441;28;20059;-73
2022/05/25 07:11:03;;;;;;;19.48;10.10;;;;;;;13.23;91.38;101425.03;5092958;28;20059;-73
2022/05/25 07:13:29;;;;;;;15.23;9.40;;;;;;;13.32;91.94;101424.84;5091806;28;20028;-72
2022/05/25 07:16:00;;;;;;;16.65;10.07;;;;;;;13.47;93.02;101417.50;5092401;28;20020;-73
2022/05/25 07:18:26;;;;;;;16.33;10.20;;;;;;;13.59;91.55;101430.28;5092590;28;20069;-73
2022/05/25 07:20:52;;;;;;;16.75;10.80;;;;;;;13.66;91.11;101429.19;5091817;28;20048;-73
2022/05/25 07:23:19;;;;;;;18.65;11.70;;;;;;;13.67;90.78;101437.91;5092462;28;20494;-73
2022/05/25 07:25:44;;;;;;;18.17;11.15;;;;;;;13.55;87.86;101439.13;5092337;28;20028;-73
2022/05/25 07:28:10;;;;;;;19.20;11.05;;;;;;;13.38;88.68;101436.09;5091556;28;20436;-73
2022/05/25 07:30:35;;;;;;;15.40;10.95;;;;;;;13.24;89.74;101439.00;5091592;28;20369;-73
2022/05/25 07:33:04;;;;;;;13.77;11.80;;;;;;;13.19;92.27;101441.75;5092628;28;20020;-73
2022/05/25 07:35:30;;;;;;;15.95;11.57;;;;;;;13.31;92.86;101444.09;5091390;28;20084;-73
2022/05/25 07:37:57;;;;;;;18.38;11.77;;;;;;;13.33;90.10;101436.19;5092618;28;20110;-73
2022/05/25 07:40:28;;;;;;;15.60;11.10;;;;;;;13.44;90.05;101447.25;5092082;28;20028;-73
2022/05/25 07:42:59;;;;;;;16.85;11.32;;;;;;;13.56;90.49;101443.44;5091369;28;20024;-73
2022/05/25 07:45:25;;;;;;;16.58;10.90;;;;;;;13.70;88.07;101446.59;5091940;28;20550;-73
2022/05/25 07:47:53;;;;;;;20.17;10.23;;;;;;;13.73;87.06;101445.63;5092231;28;20031;-73
2022/05/25 07:50:20;;;;;;;15.10;10.10;;;;;;;13.73;88.16;101450.84;5091779;28;20023;-73
2022/05/25 07:52:45;;;;;;;12.32;9.77;;;;;;;13.80;87.66;101452.44;5091604;28;20184;-74
2022/05/25 07:55:12;;;;;;;12.85;9.00;;;;;;;13.78;85.39;101465.56;5091260;28;20443;-73
2022/05/25 07:57:38;;;;;;;17.17;9.50;;;;;;;13.68;87.40;101445.75;5091735;28;20034;-73
2022/05/25 08:00:07;;;;;;;15.52;8.88;;;;;;;13.48;88.70;101458.53;5092071;28;20390;-73
2022/05/25 08:08:08;;;;;;;11.43;7.45;;;;;;;13.68;88.73;101450.13;5092203;28;20418;-73
2022/05/25 08:10:35;;;;;;;8.77;7.30;;;;;;;13.97;89.99;101447.59;5090938;28;20024;-73
2022/05/25 08:13:01;;;;;;;12.32;6.90;;;;;;;14.20;85.72;101454.78;5092105;28;20055;-73
2022/05/25 08:15:28;;;;;;;7.90;6.38;;;;;;;14.22;84.94;101458.25;5091852;28;20028;-73
2022/05/25 08:17:55;;;;;;;10.95;6.85;;;;;;;14.39;85.67;101459.50;5090825;28;20036;-73
2022/05/25 08:20:21;;;;;;;11.32;6.55;;;;;;;14.57;84.50;101461.59;5091617;28;20024;-73
2022/05/25 08:22:46;;;;;;;13.48;6.45;;;;;;;14.71;84.41;101458.56;5091482;28;20028;-73
2022/05/25 08:25:15;;;;;;;12.35;5.82;;;;;;;14.94;82.79;101460.47;5090766;28;20078;-73
2022/05/25 08:27:40;;;;;;;7.35;5.60;;;;;;;14.96;81.26;101456.03;5091741;28;20020;-73
2022/05/25 08:30:08;;;;;;;8.55;5.28;;;;;;;14.98;79.36;101446.34;5091250;28;20429;-73
2022/05/25 08:32:33;;;;;;;7.38;4.93;;;;;;;14.99;79.04;101453.31;5091112;28;20077;-73
2022/05/25 08:34:58;;;;;;;7.18;4.80;;;;;;;15.08;78.79;101453.00;5091797;28;20024;-73
2022/05/25 08:37:23;;;;;;;7.32;4.90;;;;;;;15.14;80.06;101452.81;5090583;28;20079;-73
2022/05/25 08:39:49;;;;;;;9.15;5.60;;;;;;;15.22;80.44;101448.16;5091334;28;20043;-73
2022/05/25 08:42:18;;;;;;;10.68;5.45;;;;;;;15.19;81.03;101444.78;5093857;28;20036;-73
2022/05/25 08:44:45;;;;;;;8.88;5.65;;;;;;;15.22;80.61;101440.28;5094676;28;20024;-73
2022/05/25 08:47:12;;;;;;;7.20;5.00;;;;;;;15.25;75.58;101433.22;5095373;28;20082;-73
2022/05/25 08:49:40;;;;;;;10.13;4.90;;;;;;;15.41;76.30;101450.19;5095203;28;20375;-73
2022/05/25 08:52:18;;;;;;;7.13;4.28;;;;;;;15.57;77.61;101432.97;5094986;28;20028;-73
2022/05/25 08:54:43;;;;;;;9.20;4.28;;;;;;;15.51;76.50;101445.47;5094991;28;20044;-73
2022/05/25 08:57:17;;;;;;;7.57;4.45;;;;;;;15.55;78.42;101445.31;5095463;28;20032;-73
2022/05/25 08:59:49;;;;;;;8.15;3.80;;;;;;;15.65;77.73;101435.31;5094471;28;20031;-73
2022/05/25 09:02:27;;;;;;;5.15;3.40;;;;;;;16.01;76.34;101446.31;5094901;28;20028;-73
2022/05/25 09:05:07;;;;;;;7.55;3.50;;;;;;;16.18;75.02;101443.06;5095162;28;20079;-73
2022/05/25 09:08:03;;;;;;;7.68;3.58;;;;;;;16.27;72.32;101453.25;5094005;28;20028;-73
2022/05/25 09:10:32;;;;;;;7.63;3.78;;;;;;;16.50;74.32;101444.47;5094903;28;20032;-73
2022/05/25 09:13:14;;;;;;;8.18;3.50;;;;;;;16.76;70.33;101434.75;5094286;28;20028;-73
2022/05/25 09:16:32;;;;;;;10.45;3.38;;;;;;;17.17;69.71;101443.63;5095038;28;20053;-73
2022/05/25 09:18:36;;;;;;;7.22;2.90;;;;;;;17.18;66.30;101442.69;5083397;28;20047;-73
2022/05/25 09:21:04;;;;;;;6.07;2.78;;;;;;;17.27;65.74;101452.84;5094140;28;20020;-73
2022/05/25 09:23:30;;;;;;;8.07;2.40;;;;;;;16.94;63.74;101441.03;5094520;28;20487;-73
2022/05/25 09:25:56;;;;;;;4.80;2.08;;;;;;;17.01;68.78;101448.66;5094759;28;20535;-73
2022/05/25 09:28:29;;;;;;;7.18;1.85;;;;;;;17.08;62.94;101460.66;5093840;28;20063;-73
2022/05/25 09:30:57;;;;;;;6.65;2.00;;;;;;;17.12;64.60;101458.75;5094580;28;20038;-73
2022/05/25 09:33:41;;;;;;;5.45;1.98;;;;;;;17.30;59.80;101455.34;5094300;28;20032;-73
2022/05/25 09:36:17;;;;;;;;;;;;;;;17.54;64.03;101450.81;5101756;28;20039;-73
2022/05/25 09:38:53;;;;;;;2.97;1.63;;;;;;;17.82;60.62;101448.78;5095590;28;19955;-73
2022/05/25 09:41:22;;;;;;;4.40;2.05;;;;;;;17.90;61.42;101458.09;5101728;28;20649;-73
2022/05/25 09:43:54;;;;;;;6.78;1.80;;;;;;;18.06;64.22;101450.34;5098158;28;20028;-73
2022/05/25 09:46:26;;;;;;;3.00;1.45;;;;;;;18.33;60.18;101450.00;5094292;28;20107;-73
2022/05/25 09:48:55;;;;;;;2.65;1.23;;;;;;;18.23;60.00;101460.13;5093483;28;20034;-73
2022/05/25 09:51:32;;;;;;;5.20;1.33;;;;;;;18.08;56.39;101460.81;5094351;28;20116;-73
2022/05/25 09:54:30;;;;;;;3.42;1.40;;;;;;;17.92;60.95;101471.19;5095400;28;20037;-73
2022/05/25 09:57:09;;;;;;;4.53;1.33;;;;;;;17.69;61.19;101459.84;5103141;28;20024;-73
2022/05/25 09:59:39;;;;;;;3.60;1.15;;;;;;;17.80;55.12;101467.31;5097047;28;20506;-73
2022/05/25 10:02:28;;;;;;;2.70;1.20;;;;;;;17.95;58.65;101463.13;5096968;28;20035;-73
2022/05/25 10:04:57;;;;;;;2.42;1.20;;;;;;;17.98;57.24;101477.06;5103394;28;20059;-73
2022/05/25 10:07:36;;;;;;;3.00;1.00;;;;;;;18.24;59.14;101467.97;5106287;28;20031;-73
2022/05/25 10:10:08;;;;;;;2.53;1.10;;;;;;;18.30;53.87;101469.47;5102535;27;20036;-73
2022/05/25 10:12:42;;;;;;;5.70;1.15;;;;;;;18.01;54.49;101482.19;5102845;28;20035;-74
2022/05/25 10:15:09;;;;;;;;;;;;;;;17.85;58.99;101472.38;5106185;28;20112;-73
2022/05/25 10:17:38;;;;;;;3.25;1.08;;;;;;;17.64;53.75;101468.88;5111801;27;20010;-74
2022/05/25 10:20:20;;;;;;;5.05;1.10;;;;;;;18.08;57.41;101477.50;5113044;28;20024;-73
2022/05/25 10:22:46;;;;;;;3.35;1.23;;;;;;;18.72;55.09;101471.09;5110372;28;20022;-74
2022/05/25 10:25:42;;;;;;;3.15;1.00;;;;;;;19.13;54.37;101469.09;5100158;28;20028;-73
2022/05/25 10:28:18;;;;;;;3.55;1.20;;;;;;;19.30;52.06;101462.09;5097130;28;20032;-73
2022/05/25 10:36:45;;;;;;;3.20;1.10;;;;;;;20.58;54.05;101460.66;5111797;28;20521;-76
2022/05/25 10:39:14;;;;;;;7.53;1.30;;;;;;;20.59;48.98;101461.50;5110770;28;20044;-76
2022/05/25 10:41:43;;;;;;;2.67;0.93;;;;;;;20.37;47.16;101459.13;5099620;27;20125;-76
2022/05/25 10:44:20;;;;;;;5.15;1.20;;;;;;;19.90;50.38;101454.63;5099275;28;20102;-75
2022/05/25 10:46:53;;;;;;;4.18;0.90;;;;;;;19.42;51.39;101465.00;5098674;28;20068;-76
2022/05/25 10:49:40;;;;;;;1.83;1.20;;;;;;;19.30;53.86;101444.44;5112790;28;20034;-75
2022/05/25 10:52:30;;;;;;;6.45;1.10;;;;;;;19.11;53.55;101459.50;5106808;28;20042;-75
2022/05/25 10:54:56;;;;;;;4.28;1.02;;;;;;;19.04;52.28;101450.19;5092814;28;20047;-75
2022/05/25 10:57:56;;;;;;;4.75;1.20;;;;;;;18.79;49.06;101445.22;5092561;28;20546;-76
2022/05/25 11:00:46;;;;;;;4.00;1.08;;;;;;;18.45;51.48;101455.56;5074224;28;20056;-75
2022/05/25 11:03:41;;;;;;;6.13;1.00;;;;;;;18.53;52.39;101449.94;5080841;28;20050;-75
2022/05/25 11:06:46;;;;;;;4.63;0.90;;;;;;;18.72;51.60;101457.88;5079973;28;20511;-75
2022/05/25 11:09:30;;;;;;;2.35;0.95;;;;;;;18.35;53.56;101462.22;5078047;28;20043;-75
2022/05/25 11:12:17;;;;;;;2.50;0.98;;;;;;;18.56;52.97;101465.63;5073964;28;20535;-75
2022/05/25 11:14:58;;;;;;;5.20;1.02;;;;;;;19.10;53.14;101460.47;5071150;28;20041;-75
2022/05/25 11:17:45;;;;;;;5.72;0.90;;;;;;;19.32;47.10;101453.13;5084877;28;20032;-76
2022/05/25 11:20:23;;;;;;;2.53;1.10;;;;;;;20.37;48.11;101455.63;5088728;28;20070;-75
2022/05/25 11:23:13;;;;;;;4.60;1.10;;;;;;;20.53;48.80;101453.88;5072233;28;20020;-76
2022/05/25 11:26:09;;;;;;;4.00;1.00;;;;;;;19.67;49.53;101455.81;5084490;28;20052;-76
2022/05/25 11:28:58;;;;;;;4.63;1.30;;;;;;;19.55;50.76;101443.19;5076707;28;20033;-76
2022/05/25 11:32:00;;;;;;;5.25;0.90;;;;;;;19.76;51.01;101449.22;5091774;28;20479;-76
2022/05/25 11:34:36;;;;;;;2.38;1.20;;;;;;;19.76;49.53;101430.69;5087260;28;20066;-76
2022/05/25 11:37:35;;;;;;;2.58;1.33;;;;;;;20.12;53.40;101435.81;5092535;28;20150;-76
2022/05/25 11:40:14;;;;;;;5.15;1.60;;;;;;;21.10;50.31;101440.09;5072067;28;20460;-75
2022/05/25 11:43:04;;;;;;;2.42;1.20;;;;;;;22.02;47.82;101430.13;5092018;28;20026;-76
2022/05/25 11:45:59;;;;;;;4.15;1.15;;;;;;;22.69;45.95;101425.00;5092332;28;20066;-76
2022/05/25 11:48:38;;;;;;;3.15;1.30;;;;;;;22.28;44.20;101428.53;5072347;28;20039;-75
2022/05/25 11:51:22;;;;;;;3.67;1.10;;;;;;;22.14;43.05;101424.06;5078151;28;20063;-76
2022/05/25 11:54:02;;;;;;;;;;;;;;;24.23;41.66;101423.38;5089884;28;20043;-76
2022/05/25 11:56:35;;;;;;;2.33;1.00;;;;;;;26.34;35.75;101404.63;5102410;28;19916;-76
2022/05/25 11:59:37;;;;;;;4.35;1.00;;;;;;;26.10;36.99;101410.16;5097905;28;20042;-75